Time;durP1;ratioP1;P1;durP2;ratioP2;P2;SDS_P1;SDS_P2;PMS_P1;PMS_P2;Temp;Humidity;BMP_temperature;BMP_pressure;BME280_temperature;BME280_humidity;BME280_pressure;Samples;Min_cycle;Max_cycle;Signal;HPM_P1;HPM_P2
2023/04/19 00:02:25;;;;;;;3.10;1.40;;;;;;;18.80;39.23;99460.77;104330;1259;68514;-61
2023/04/19 00:04:54;;;;;;;1.90;1.60;;;;;;;18.76;39.23;99454.34;104353;1262;71784;-62
2023/04/19 00:07:22;;;;;;;2.60;2.00;;;;;;;18.76;39.53;99455.75;104393;1251;61859;-61
2023/04/19 00:09:51;;;;;;;3.00;2.00;;;;;;;18.83;39.35;99459.85;104573;1256;60466;-61
2023/04/19 00:12:19;;;;;;;3.20;1.50;;;;;;;18.86;39.17;99452.38;104921;1255;72765;-60
2023/04/19 00:14:48;;;;;;;1.90;1.70;;;;;;;18.86;39.30;99452.86;104507;1266;68925;-61
2023/04/19 00:17:17;;;;;;;2.30;1.40;;;;;;;18.86;39.16;99451.29;104316;1250;71943;-61
2023/04/19 00:19:45;;;;;;;4.30;1.70;;;;;;;18.91;39.25;99448.54;104542;1251;61529;-61
2023/04/19 00:22:14;;;;;;;2.90;2.10;;;;;;;18.98;39.29;99447.27;104511;1255;60543;-59
2023/04/19 00:24:42;;;;;;;2.60;1.80;;;;;;;19.01;39.34;99445.06;104328;1251;73145;-61
2023/04/19 00:27:11;;;;;;;2.10;1.60;;;;;;;19.01;38.90;99445.61;104410;1262;69130;-60
2023/04/19 00:29:39;;;;;;;2.40;2.00;;;;;;;19.00;38.89;99441.79;104640;1251;72051;-60
2023/04/19 00:32:08;;;;;;;4.70;2.00;;;;;;;18.99;38.59;99443.64;104328;1266;62071;-60
2023/04/19 00:34:36;;;;;;;3.40;1.80;;;;;;;18.95;38.99;99448.73;104384;1267;60600;-60
2023/04/19 00:37:05;;;;;;;3.30;1.50;;;;;;;18.96;39.07;99448.11;104328;1256;73617;-61
2023/04/19 00:39:33;;;;;;;2.30;1.70;;;;;;;18.97;39.01;99440.27;104345;1251;69655;-62
2023/04/19 00:42:04;;;;;;;2.60;1.90;;;;;;;18.99;39.19;99435.70;104440;1269;73497;-62
2023/04/19 00:44:34;;;;;;;2.00;1.60;;;;;;;18.98;39.30;99437.66;104518;1254;60546;-62
2023/04/19 00:47:02;;;;;;;3.30;1.90;;;;;;;18.95;39.36;99429.40;104432;1256;60550;-62
2023/04/19 00:49:31;;;;;;;3.30;2.00;;;;;;;18.94;39.53;99436.60;104329;1260;72896;-63
2023/04/19 00:51:59;;;;;;;3.00;1.80;;;;;;;18.92;39.60;99433.04;104442;1250;69734;-61
2023/04/19 00:54:28;;;;;;;2.00;1.80;;;;;;;18.87;39.55;99435.02;104386;1251;72014;-61
2023/04/19 00:56:57;;;;;;;2.20;1.80;;;;;;;18.87;39.50;99435.23;104384;1268;60909;-61
2023/04/19 00:59:25;;;;;;;2.10;1.80;;;;;;;18.82;39.89;99430.10;104343;1270;61191;-61
2023/04/19 01:01:54;;;;;;;2.20;1.70;;;;;;;18.83;39.60;99430.20;104376;1266;75001;-62
2023/04/19 01:04:22;;;;;;;2.00;1.70;;;;;;;18.80;39.36;99427.21;104307;1272;68869;-61
2023/04/19 01:06:51;;;;;;;2.00;1.80;;;;;;;18.76;39.43;99427.39;104362;1254;72702;-61
2023/04/19 01:09:19;;;;;;;1.80;1.60;;;;;;;18.74;39.48;99426.48;104501;1269;61434;-61
2023/04/19 01:11:49;;;;;;;2.10;1.60;;;;;;;18.72;39.07;99424.86;104880;1254;60556;-61
2023/04/19 01:14:17;;;;;;;3.60;1.70;;;;;;;18.66;40.02;99421.73;104394;1260;73691;-61
2023/04/19 01:16:47;;;;;;;2.00;1.20;;;;;;;18.60;40.06;99417.09;104341;1255;69537;-62
2023/04/19 01:19:15;;;;;;;2.30;1.70;;;;;;;18.50;39.37;99413.98;104420;1250;71804;-62
2023/04/19 01:21:45;;;;;;;2.00;1.90;;;;;;;18.41;39.52;99416.30;104425;1259;61541;-62
2023/04/19 01:24:13;;;;;;;2.70;1.60;;;;;;;18.33;40.18;99414.98;104445;1257;61162;-62
2023/04/19 01:26:42;;;;;;;1.80;1.70;;;;;;;18.27;39.50;99411.01;104453;1267;74162;-62
2023/04/19 01:29:10;;;;;;;1.70;1.50;;;;;;;18.22;39.89;99412.61;104610;1256;68850;-62
2023/04/19 01:31:39;;;;;;;4.10;1.70;;;;;;;18.19;40.12;99411.98;105138;1256;72005;-63
2023/04/19 01:34:08;;;;;;;3.40;2.00;;;;;;;18.09;40.13;99408.64;104672;1251;62362;-63
2023/04/19 01:36:38;;;;;;;2.10;1.90;;;;;;;18.05;40.16;99403.69;105243;1255;60556;-62
2023/04/19 01:39:07;;;;;;;2.00;1.50;;;;;;;17.99;40.65;99400.24;104368;1257;73762;-62
2023/04/19 01:41:35;;;;;;;3.50;1.80;;;;;;;17.93;41.14;99404.25;104297;1272;69484;-62
2023/04/19 01:44:04;;;;;;;2.10;1.90;;;;;;;17.84;40.89;99404.73;104385;1267;72141;-63
2023/04/19 01:46:32;;;;;;;3.10;1.90;;;;;;;17.78;41.03;99401.48;104429;1262;61193;-63
2023/04/19 01:49:02;;;;;;;2.50;1.90;;;;;;;17.72;41.48;99402.95;104460;1267;61392;-64
2023/04/19 01:51:31;;;;;;;2.80;1.80;;;;;;;17.67;40.99;99402.45;104357;1267;74074;-64
2023/04/19 01:54:01;;;;;;;1.80;1.70;;;;;;;17.63;40.66;99403.14;104446;1261;68584;-62
2023/04/19 01:56:30;;;;;;;2.60;1.80;;;;;;;17.58;40.70;99398.89;104387;1256;73519;-62
2023/04/19 01:58:59;;;;;;;5.10;2.10;;;;;;;17.53;40.43;99397.35;104432;1256;61923;-63
2023/04/19 02:01:27;;;;;;;1.80;1.70;;;;;;;17.47;40.58;99393.37;104615;1254;60521;-63
2023/04/19 02:03:56;;;;;;;2.20;2.00;;;;;;;17.45;40.71;99391.00;104464;1263;73214;-64
2023/04/19 02:06:26;;;;;;;1.80;1.60;;;;;;;17.39;40.58;99391.63;104413;1250;68978;-63
2023/04/19 02:08:54;;;;;;;2.20;1.50;;;;;;;17.36;40.78;99385.34;104347;1256;72244;-61
2023/04/19 02:11:23;;;;;;;1.80;1.60;;;;;;;17.36;40.97;99391.19;104314;1250;61099;-62
2023/04/19 02:13:51;;;;;;;1.60;1.50;;;;;;;17.31;41.33;99384.38;104324;1251;60783;-62
2023/04/19 02:16:20;;;;;;;1.90;1.50;;;;;;;17.27;41.41;99383.63;104422;1274;74425;-62
2023/04/19 02:18:50;;;;;;;2.70;1.80;;;;;;;17.25;41.31;99385.40;104398;1257;68494;-62
2023/04/19 02:21:19;;;;;;;4.00;1.60;;;;;;;17.27;41.27;99378.20;104431;1251;72578;-63
2023/04/19 02:23:47;;;;;;;3.20;1.80;;;;;;;17.22;41.52;99379.08;104964;1256;63382;-63
2023/04/19 02:26:16;;;;;;;2.10;1.60;;;;;;;17.15;40.98;99376.05;104603;1251;60679;-62
2023/04/19 02:28:44;;;;;;;2.30;1.40;;;;;;;17.13;41.53;99376.91;104406;1257;73488;-62
2023/04/19 02:31:13;;;;;;;2.50;1.70;;;;;;;17.09;41.61;99380.58;104414;1269;69463;-62
2023/04/19 02:33:42;;;;;;;3.10;1.80;;;;;;;17.13;41.27;99386.09;104398;1267;72462;-61
2023/04/19 02:36:11;;;;;;;6.50;1.90;;;;;;;17.17;41.21;99389.21;104433;1256;60584;-62
2023/04/19 02:38:40;;;;;;;1.60;1.50;;;;;;;17.19;40.89;99387.13;104395;1255;60536;-65
2023/04/19 02:41:08;;;;;;;4.30;2.00;;;;;;;17.21;40.71;99389.63;105079;1251;74407;-62
2023/04/19 02:43:39;;;;;;;2.10;1.60;;;;;;;17.25;40.51;99392.66;106623;1250;68675;-63
2023/04/19 02:46:09;;;;;;;5.20;1.60;;;;;;;17.28;40.67;99392.11;104715;1255;72799;-62
2023/04/19 02:48:37;;;;;;;1.70;1.60;;;;;;;17.29;41.10;99392.51;104353;1256;60759;-64
2023/04/19 02:51:06;;;;;;;2.30;1.90;;;;;;;17.26;40.67;99391.57;104294;1266;62437;-61
2023/04/19 02:53:37;;;;;;;3.70;1.90;;;;;;;17.25;40.80;99396.02;104288;1270;72927;-61
2023/04/19 02:56:06;;;;;;;2.20;1.50;;;;;;;17.31;40.52;99391.13;104406;1257;68475;-62
2023/04/19 02:58:35;;;;;;;2.50;2.00;;;;;;;17.30;40.30;99392.98;104440;1257;72341;-61
2023/04/19 03:01:05;;;;;;;2.30;1.70;;;;;;;17.29;40.62;99388.84;104868;1252;61105;-62
2023/04/19 03:03:34;;;;;;;4.30;2.00;;;;;;;17.27;40.74;99390.25;104715;1266;60601;-65
2023/04/19 03:06:02;;;;;;;1.90;1.70;;;;;;;17.27;40.81;99387.93;104347;1266;73382;-63
2023/04/19 03:08:32;;;;;;;2.10;1.90;;;;;;;17.26;40.64;99390.27;104397;1254;70166;-62
2023/04/19 03:11:01;;;;;;;2.00;1.80;;;;;;;17.28;40.69;99389.76;104453;1250;72315;-62
2023/04/19 03:13:30;;;;;;;2.10;1.90;;;;;;;17.28;40.84;99391.35;104298;1259;60812;-62
2023/04/19 03:15:59;;;;;;;3.40;1.80;;;;;;;17.30;40.81;99384.88;104526;1267;61568;-63
2023/04/19 03:18:28;;;;;;;4.70;1.80;;;;;;;17.31;41.02;99383.91;104529;1260;73467;-63
2023/04/19 03:20:57;;;;;;;2.00;1.90;;;;;;;17.32;40.77;99380.43;104380;1257;70030;-62
2023/04/19 03:23:27;;;;;;;2.30;1.90;;;;;;;17.33;40.91;99378.64;104422;1257;71493;-62
2023/04/19 03:25:58;;;;;;;2.90;1.80;;;;;;;17.34;40.97;99376.24;104327;1257;60640;-62
2023/04/19 03:28:35;;;;;;;;;;;;;;;17.38;40.99;99374.86;104440;1255;60505;-62
2023/04/19 03:31:24;;;;;;;1.70;1.50;;;;;;;17.42;41.11;99372.27;104598;1264;74956;-63
2023/04/19 03:33:53;;;;;;;2.10;1.60;;;;;;;17.43;40.89;99376.62;104494;1256;69805;-62
2023/04/19 03:36:26;;;;;;;1.90;1.70;;;;;;;17.46;41.26;99382.41;104885;1250;71577;-62
2023/04/19 03:38:55;;;;;;;2.10;1.80;;;;;;;17.46;41.11;99381.91;104595;1256;61464;-62
2023/04/19 03:41:24;;;;;;;5.30;1.80;;;;;;;17.51;40.84;99381.67;104446;1257;60645;-62
2023/04/19 03:44:00;;;;;;;4.50;1.70;;;;;;;17.58;40.81;99382.75;104494;1256;73100;-61
2023/04/19 03:46:32;;;;;;;3.70;1.80;;;;;;;17.62;40.65;99381.96;104662;1268;71188;-62
2023/04/19 03:49:00;;;;;;;2.20;1.80;;;;;;;17.66;40.60;99377.22;104374;1254;72679;-63
2023/04/19 03:51:30;;;;;;;2.80;1.70;;;;;;;17.71;40.58;99379.66;104518;1267;61336;-64
2023/04/19 03:53:59;;;;;;;2.40;2.10;;;;;;;17.77;40.46;99378.09;104471;1260;60482;-63
2023/04/19 03:56:27;;;;;;;2.40;1.80;;;;;;;17.79;40.50;99376.38;104300;1267;74358;-62
2023/04/19 03:58:56;;;;;;;2.30;1.70;;;;;;;17.83;40.58;99374.30;104639;1266;68473;-63
2023/04/19 04:01:25;;;;;;;2.30;1.80;;;;;;;17.88;40.39;99375.19;104381;1263;72564;-63
2023/04/19 04:03:54;;;;;;;4.50;2.00;;;;;;;17.96;40.21;99375.95;104399;1255;61423;-61
2023/04/19 04:06:23;;;;;;;3.20;1.90;;;;;;;17.99;40.30;99374.13;104449;1257;60539;-62
2023/04/19 04:08:52;;;;;;;4.00;2.30;;;;;;;18.04;40.32;99367.36;104314;1257;73453;-61
2023/04/19 04:11:21;;;;;;;2.40;1.90;;;;;;;18.11;40.23;99368.45;105049;1260;69693;-61
2023/04/19 04:13:49;;;;;;;1.70;1.50;;;;;;;18.17;40.00;99372.93;104529;1265;72146;-61
2023/04/19 04:16:21;;;;;;;2.50;2.00;;;;;;;18.22;40.28;99373.23;104519;1254;60795;-60
2023/04/19 04:18:50;;;;;;;2.90;2.30;;;;;;;18.29;40.24;99374.27;104337;1252;60897;-60
2023/04/19 04:21:20;;;;;;;1.90;1.70;;;;;;;18.37;40.03;99374.23;104608;1256;72701;-62
2023/04/19 04:23:48;;;;;;;1.70;1.60;;;;;;;18.44;40.05;99375.04;104463;1266;70332;-61
2023/04/19 04:26:32;;;;;;;1.80;1.70;;;;;;;18.51;39.72;99374.54;104771;1261;72086;-60
2023/04/19 04:29:27;;;;;;;2.40;1.80;;;;;;;18.61;39.46;99372.77;104613;1270;60762;-62
2023/04/19 04:31:58;;;;;;;4.80;1.70;;;;;;;18.66;39.63;99367.30;104740;1251;60584;-61
2023/04/19 04:34:31;;;;;;;2.00;1.50;;;;;;;18.72;39.43;99364.66;104437;1257;74253;-64
2023/04/19 04:37:07;;;;;;;2.10;1.80;;;;;;;18.77;39.25;99366.60;104367;1256;69972;-60
2023/04/19 04:39:38;;;;;;;2.90;1.70;;;;;;;18.77;39.13;99366.61;104518;1270;71961;-63
2023/04/19 04:42:09;;;;;;;3.30;1.80;;;;;;;18.74;39.19;99368.72;104420;1251;61007;-63
2023/04/19 04:44:38;;;;;;;5.50;1.80;;;;;;;18.83;39.59;99375.17;104531;1258;60595;-62
2023/04/19 04:47:07;;;;;;;1.80;1.70;;;;;;;18.94;39.59;99379.45;104324;1272;73851;-64
2023/04/19 04:49:40;;;;;;;2.90;2.10;;;;;;;18.99;39.37;99376.69;104392;1266;69848;-68
2023/04/19 04:52:09;;;;;;;2.30;1.90;;;;;;;19.04;39.39;99376.63;104428;1267;72022;-66
2023/04/19 04:54:44;;;;;;;2.10;1.90;;;;;;;19.10;39.31;99382.16;104369;1270;60915;-67
2023/04/19 04:57:20;;;;;;;1.80;1.60;;;;;;;19.12;39.23;99385.95;104411;1272;60335;-68
2023/04/19 04:59:49;;;;;;;2.10;1.90;;;;;;;19.16;39.26;99386.13;104806;1257;73835;-68
2023/04/19 05:02:18;;;;;;;2.90;2.30;;;;;;;19.20;39.15;99389.90;104586;1269;69413;-70
2023/04/19 05:04:47;;;;;;;2.40;2.00;;;;;;;19.23;39.40;99393.33;104472;1257;73994;-71
2023/04/19 05:07:15;;;;;;;3.80;2.10;;;;;;;19.27;39.23;99391.44;104525;1251;62416;-70
2023/04/19 05:09:44;;;;;;;2.30;1.90;;;;;;;19.29;39.37;99393.26;104433;1256;60847;-67
2023/04/19 05:12:14;;;;;;;3.20;1.90;;;;;;;19.33;38.85;99393.11;104506;1260;73254;-69
2023/04/19 05:14:42;;;;;;;1.80;1.70;;;;;;;19.36;38.88;99394.98;104409;1254;68582;-70
2023/04/19 05:17:11;;;;;;;2.70;2.10;;;;;;;19.36;38.31;99392.95;104422;1261;71747;-67
2023/04/19 05:19:39;;;;;;;2.30;2.00;;;;;;;19.37;38.87;99388.89;104585;1267;62140;-66
2023/04/19 05:22:08;;;;;;;4.80;2.00;;;;;;;19.36;38.55;99393.52;105314;1254;60568;-65
2023/04/19 05:24:38;;;;;;;3.30;2.20;;;;;;;19.40;38.97;99390.02;104505;1257;73960;-64
2023/04/19 05:27:10;;;;;;;4.20;2.10;;;;;;;19.42;38.83;99384.86;104283;1251;69008;-63
2023/04/19 05:29:38;;;;;;;3.80;2.30;;;;;;;19.44;38.90;99386.79;104455;1256;71623;-66
2023/04/19 05:32:07;;;;;;;3.10;2.10;;;;;;;19.44;38.55;99382.71;104422;1255;62292;-66
2023/04/19 05:34:45;;;;;;;1.90;1.80;;;;;;;19.45;38.40;99381.95;104463;1256;60444;-65
2023/04/19 05:37:14;;;;;;;3.40;2.10;;;;;;;19.46;38.37;99384.91;104323;1254;72846;-65
2023/04/19 05:39:43;;;;;;;2.90;2.30;;;;;;;19.44;38.38;99378.64;104518;1256;69481;-65
2023/04/19 05:42:12;;;;;;;3.10;2.00;;;;;;;19.47;38.67;99384.65;104296;1259;72089;-64
2023/04/19 05:44:40;;;;;;;3.30;2.30;;;;;;;19.52;38.52;99381.77;104572;1267;60558;-67
2023/04/19 05:47:09;;;;;;;3.40;2.10;;;;;;;19.56;38.68;99379.57;104410;1255;60431;-67
2023/04/19 05:50:06;;;;;;;3.30;1.90;;;;;;;19.66;38.59;99377.14;104140;1261;73830;-61
2023/04/19 05:52:39;;;;;;;3.00;1.90;;;;;;;19.70;38.53;99376.65;104305;1270;68445;-60
2023/04/19 05:55:08;;;;;;;2.80;1.70;;;;;;;19.74;38.46;99378.66;104523;1259;72043;-63
2023/04/19 05:57:41;;;;;;;2.70;2.00;;;;;;;19.79;38.62;99383.68;104512;1251;60545;-62
2023/04/19 06:00:10;;;;;;;5.20;1.90;;;;;;;19.85;38.29;99385.92;104339;1273;59956;-63
2023/04/19 06:02:43;;;;;;;3.60;1.90;;;;;;;19.89;38.50;99390.90;104434;1254;73041;-63
2023/04/19 06:05:13;;;;;;;4.20;2.10;;;;;;;19.94;38.48;99382.68;104957;1251;69129;-64
2023/04/19 06:07:41;;;;;;;4.50;2.20;;;;;;;19.99;38.34;99383.44;104417;1260;72479;-62
2023/04/19 06:10:22;;;;;;;3.70;2.00;;;;;;;20.01;38.31;99379.89;104355;1257;60549;-62
2023/04/19 06:12:51;;;;;;;5.20;2.40;;;;;;;20.08;38.40;99382.51;104335;1274;60421;-62
2023/04/19 06:15:20;;;;;;;6.00;2.10;;;;;;;20.14;38.42;99383.02;104428;1251;73334;-63
2023/04/19 06:17:49;;;;;;;4.20;2.30;;;;;;;20.24;38.26;99386.11;104355;1261;69822;-64
2023/04/19 06:20:17;;;;;;;2.80;2.40;;;;;;;20.35;38.39;99380.74;104583;1251;71567;-64
2023/04/19 06:22:46;;;;;;;3.40;2.30;;;;;;;20.36;37.92;99384.52;104358;1251;60553;-63
2023/04/19 06:25:14;;;;;;;3.40;2.30;;;;;;;20.39;37.80;99382.48;104454;1257;60648;-63
2023/04/19 06:27:42;;;;;;;6.10;2.50;;;;;;;20.38;38.03;99384.52;104320;1270;73217;-63
2023/04/19 06:30:11;;;;;;;5.10;2.20;;;;;;;20.44;37.79;99381.51;104609;1254;69562;-63
2023/04/19 06:32:40;;;;;;;7.90;2.40;;;;;;;20.52;37.89;99382.55;104517;1264;73284;-64
2023/04/19 06:35:08;;;;;;;9.10;2.50;;;;;;;20.56;37.86;99378.15;104572;1256;60950;-63
2023/04/19 06:37:37;;;;;;;2.30;2.10;;;;;;;20.61;37.83;99372.39;104490;1251;60736;-63
2023/04/19 06:40:07;;;;;;;3.90;2.50;;;;;;;20.59;38.07;99370.06;104301;1255;74649;-63
2023/04/19 06:42:36;;;;;;;2.90;2.50;;;;;;;20.63;38.01;99367.70;104975;1251;69106;-64
2023/04/19 06:45:07;;;;;;;4.10;2.10;;;;;;;20.60;37.71;99366.91;104468;1254;72069;-61
2023/04/19 06:47:36;;;;;;;5.50;2.50;;;;;;;20.68;37.93;99367.19;104688;1250;60498;-62
2023/04/19 06:50:05;;;;;;;4.30;2.40;;;;;;;20.72;37.80;99362.67;104473;1255;60540;-61
2023/04/19 06:52:34;;;;;;;2.70;2.00;;;;;;;20.84;37.85;99361.09;104781;1254;74521;-61
2023/04/19 06:55:02;;;;;;;3.20;2.20;;;;;;;20.94;38.08;99361.64;104903;1264;68492;-62
2023/04/19 06:57:30;;;;;;;5.00;2.10;;;;;;;21.04;37.96;99357.67;104607;1254;73040;-61
2023/04/19 06:59:59;;;;;;;7.10;2.40;;;;;;;21.16;37.97;99359.98;104411;1255;60982;-61
2023/04/19 07:02:28;;;;;;;5.10;2.60;;;;;;;21.29;37.89;99363.80;104417;1251;60536;-61
2023/04/19 07:04:57;;;;;;;6.70;2.40;;;;;;;21.35;37.58;99361.21;104579;1254;74497;-64
2023/04/19 07:07:25;;;;;;;5.30;2.30;;;;;;;21.44;37.47;99359.55;105034;1251;69329;-61
2023/04/19 07:09:53;;;;;;;6.30;2.20;;;;;;;21.54;37.66;99360.42;104710;1256;72748;-61
2023/04/19 07:12:22;;;;;;;7.10;1.90;;;;;;;21.61;37.63;99358.39;104716;1256;60898;-60
2023/04/19 07:14:55;;;;;;;4.10;2.00;;;;;;;21.73;37.76;99361.01;104937;1254;60527;-61
2023/04/19 07:17:23;;;;;;;4.40;2.00;;;;;;;21.86;37.58;99364.88;104482;1254;74338;-62
2023/04/19 07:19:52;;;;;;;6.40;2.00;;;;;;;21.96;37.48;99361.66;104643;1254;69655;-61
2023/04/19 07:22:21;;;;;;;4.10;1.80;;;;;;;22.03;37.41;99362.45;104657;1255;73029;-62
2023/04/19 07:24:51;;;;;;;5.20;1.90;;;;;;;22.17;37.57;99362.20;104639;1254;60505;-62
2023/04/19 07:27:19;;;;;;;9.00;2.20;;;;;;;22.28;37.58;99364.01;104462;1251;60642;-61
2023/04/19 07:32:14;;;;;;;4.50;2.00;;;;;;;21.49;39.86;99364.45;101614;1290;601227;-61
2023/04/19 07:34:44;;;;;;;9.80;2.20;;;;;;;22.65;37.03;99362.57;104065;1268;61484;-62
2023/04/19 07:37:13;;;;;;;4.20;2.00;;;;;;;22.66;36.94;99358.89;103936;1268;59394;-61
2023/04/19 07:39:41;;;;;;;4.00;1.90;;;;;;;22.70;36.77;99359.45;104243;1262;72666;-62
2023/04/19 07:42:10;;;;;;;5.80;2.00;;;;;;;22.71;36.96;99359.84;103908;1260;68775;-62
2023/04/19 07:44:38;;;;;;;6.60;2.30;;;;;;;22.72;37.19;99360.77;104347;1262;72537;-62
2023/04/19 07:47:06;;;;;;;4.40;1.90;;;;;;;22.78;37.12;99357.24;104396;1257;60418;-63
2023/04/19 07:49:36;;;;;;;4.20;1.60;;;;;;;22.82;37.21;99359.14;104399;1262;59857;-62
2023/04/19 07:52:07;;;;;;;3.90;2.20;;;;;;;22.91;37.00;99355.51;104345;1262;71505;-63
2023/04/19 07:54:38;;;;;;;4.20;1.70;;;;;;;22.98;37.08;99357.90;104347;1256;70005;-62
2023/04/19 07:57:06;;;;;;;5.40;2.10;;;;;;;23.04;36.96;99358.20;104274;1257;74341;-62
2023/04/19 07:59:35;;;;;;;3.40;1.80;;;;;;;23.13;37.13;99355.73;104687;1263;60515;-63
2023/04/19 08:02:03;;;;;;;5.50;2.10;;;;;;;23.19;36.95;99357.85;104428;1257;61045;-67
2023/04/19 08:04:32;;;;;;;4.60;2.00;;;;;;;23.30;36.83;99354.02;104360;1256;73217;-61
2023/04/19 08:07:03;;;;;;;6.00;1.80;;;;;;;23.37;36.92;99353.29;104298;1257;68738;-59
2023/04/19 08:09:33;;;;;;;3.10;1.80;;;;;;;23.51;36.70;99350.01;104330;1259;72980;-64
2023/04/19 08:12:01;;;;;;;7.80;2.10;;;;;;;23.58;37.06;99348.15;104253;1272;61122;-62
2023/04/19 08:14:30;;;;;;;4.60;2.10;;;;;;;23.69;36.88;99346.33;104382;1268;60335;-62
2023/04/19 08:17:11;;;;;;;10.10;2.20;;;;;;;23.80;36.65;99345.63;104627;1265;72703;-61
2023/04/19 08:19:53;;;;;;;7.00;2.10;;;;;;;23.88;36.72;99343.14;104447;1268;69120;-66
2023/04/19 08:22:22;;;;;;;8.60;1.90;;;;;;;23.96;36.09;99338.02;104206;1262;73248;-60
2023/04/19 08:24:50;;;;;;;5.20;1.80;;;;;;;24.01;36.44;99336.65;104168;1257;60479;-62
2023/04/19 08:27:19;;;;;;;7.00;2.00;;;;;;;23.99;36.28;99333.79;104251;1271;60104;-62
2023/04/19 08:29:48;;;;;;;8.60;2.40;;;;;;;24.06;36.28;99336.27;104345;1257;71937;-62
2023/04/19 08:32:17;;;;;;;4.70;2.00;;;;;;;24.13;36.24;99332.85;104251;1259;71035;-62
2023/04/19 08:34:45;;;;;;;6.00;2.60;;;;;;;24.20;36.41;99328.21;104506;1261;72750;-65
2023/04/19 08:37:13;;;;;;;4.50;2.00;;;;;;;24.24;36.19;99329.23;103888;1275;59845;-63
2023/04/19 08:39:42;;;;;;;6.80;2.10;;;;;;;24.21;36.38;99328.42;104517;1260;60276;-63
2023/04/19 08:42:10;;;;;;;4.70;2.50;;;;;;;24.23;36.37;99325.74;103918;1259;73654;-65
2023/04/19 08:45:04;;;;;;;8.90;1.90;;;;;;;24.38;36.19;99325.27;104192;1259;69839;-64
2023/04/19 08:47:36;;;;;;;5.10;2.30;;;;;;;24.36;36.03;99321.84;104369;1263;73422;-63
2023/04/19 08:50:24;;;;;;;8.10;2.20;;;;;;;24.39;35.47;99320.46;103937;1277;59820;-63
2023/04/19 08:53:07;;;;;;;7.10;1.90;;;;;;;24.43;35.77;99324.17;104183;1271;59792;-64
2023/04/19 08:55:57;;;;;;;;;;;;;;;24.50;35.84;99319.71;104478;1263;73604;-64
2023/04/19 08:58:45;;;;;;;3.30;1.80;;;;;;;24.59;35.63;99318.98;104373;1259;69515;-65
2023/04/19 09:01:17;;;;;;;8.20;1.70;;;;;;;24.58;35.65;99317.44;104279;1263;71807;-63
2023/04/19 09:04:01;;;;;;;3.50;1.70;;;;;;;24.72;35.60;99317.77;104319;1259;60128;-63
2023/04/19 09:06:49;;;;;;;4.10;2.10;;;;;;;24.76;35.51;99321.65;104071;1264;59717;-63
2023/04/19 09:09:18;;;;;;;5.80;2.10;;;;;;;24.89;35.64;99318.58;104082;1259;73203;-62
2023/04/19 09:12:15;;;;;;;11.40;1.90;;;;;;;24.99;35.36;99321.07;103970;1275;68714;-62
2023/04/19 09:14:44;;;;;;;7.90;2.70;;;;;;;25.09;35.19;99316.45;104493;1265;72027;-64
2023/04/19 09:17:32;;;;;;;7.40;1.70;;;;;;;25.06;35.14;99315.17;104258;1260;60021;-66
2023/04/19 09:20:00;;;;;;;6.60;1.70;;;;;;;25.18;35.33;99314.98;104345;1261;60305;-62
2023/04/19 09:22:30;;;;;;;7.40;2.00;;;;;;;25.33;35.08;99313.46;104503;1259;72825;-62
2023/04/19 09:24:59;;;;;;;6.90;2.00;;;;;;;25.49;34.54;99310.29;105159;1265;69152;-60
2023/04/19 09:27:34;;;;;;;4.90;1.80;;;;;;;25.58;34.86;99311.42;104424;1259;71823;-63
2023/04/19 09:30:03;;;;;;;6.10;2.00;;;;;;;25.71;34.26;99307.73;104472;1259;59941;-64
2023/04/19 09:32:46;;;;;;;4.70;1.70;;;;;;;25.76;34.75;99308.26;104583;1257;60344;-62
2023/04/19 09:35:15;;;;;;;6.10;1.90;;;;;;;25.73;34.27;99317.14;104224;1262;72364;-63
2023/04/19 09:37:57;;;;;;;8.10;1.80;;;;;;;25.68;33.94;99314.42;104664;1255;68591;-62
2023/04/19 09:40:36;;;;;;;8.90;1.70;;;;;;;25.71;33.86;99318.33;104563;1257;72985;-62
2023/04/19 09:43:05;;;;;;;8.70;1.50;;;;;;;25.70;34.22;99315.75;104369;1256;59735;-62
2023/04/19 09:45:53;;;;;;;8.70;1.60;;;;;;;25.75;34.26;99313.00;104509;1259;59523;-63
2023/04/19 09:48:21;;;;;;;7.30;1.60;;;;;;;25.81;34.29;99314.13;104206;1275;73846;-63
2023/04/19 09:50:55;;;;;;;15.20;1.60;;;;;;;25.80;33.84;99307.91;104348;1259;68831;-63
2023/04/19 09:53:33;;;;;;;6.30;1.90;;;;;;;25.76;33.63;99305.84;104350;1269;72691;-63
2023/04/19 09:56:04;;;;;;;10.40;1.90;;;;;;;25.69;33.93;99305.71;104375;1257;60396;-62
2023/04/19 09:58:33;;;;;;;12.60;1.60;;;;;;;25.72;33.70;99302.52;104355;1254;60084;-61
2023/04/19 10:01:18;;;;;;;11.80;2.20;;;;;;;25.79;33.89;99300.13;104572;1254;73061;-62
2023/04/19 10:03:48;;;;;;;9.90;2.20;;;;;;;25.78;33.84;99297.41;104459;1258;70166;-60
2023/04/19 10:06:17;;;;;;;13.90;2.30;;;;;;;25.79;33.71;99293.67;104339;1259;72214;-61
2023/04/19 10:08:49;;;;;;;7.90;1.80;;;;;;;25.92;33.75;99298.47;104557;1265;60444;-60
2023/04/19 10:11:20;;;;;;;10.80;2.20;;;;;;;26.06;33.19;99296.37;104691;1258;59760;-61
2023/04/19 10:13:49;;;;;;;10.00;2.10;;;;;;;26.13;33.78;99296.93;104633;1253;72323;-61
2023/04/19 10:16:17;;;;;;;12.40;2.00;;;;;;;26.10;33.43;99301.67;104417;1253;68438;-62
2023/04/19 10:18:48;;;;;;;11.80;2.50;;;;;;;26.10;33.28;99304.55;104466;1259;72134;-61
2023/04/19 10:21:18;;;;;;;8.80;2.10;;;;;;;26.17;33.20;99299.88;104468;1257;60365;-61
2023/04/19 10:23:46;;;;;;;11.40;2.40;;;;;;;26.30;33.49;99300.73;104509;1253;60606;-62
2023/04/19 10:26:15;;;;;;;6.70;2.00;;;;;;;26.40;32.52;99299.23;104986;1253;71984;-63
2023/04/19 10:28:44;;;;;;;12.00;2.80;;;;;;;26.49;32.96;99300.89;105789;1252;68968;-62
2023/04/19 10:31:12;;;;;;;11.20;2.10;;;;;;;26.49;33.03;99299.45;108383;1252;73302;-64
2023/04/19 10:33:41;;;;;;;7.80;2.10;;;;;;;26.62;32.97;99298.49;105148;1266;60097;-62
2023/04/19 10:36:14;;;;;;;13.20;2.10;;;;;;;26.78;33.37;99297.77;105755;1256;59679;-63
2023/04/19 10:38:47;;;;;;;12.90;2.60;;;;;;;26.95;33.21;99293.63;104661;1259;72129;-61
2023/04/19 10:41:16;;;;;;;6.60;1.80;;;;;;;26.97;32.73;99295.67;104636;1257;70005;-62
2023/04/19 10:43:47;;;;;;;9.70;2.20;;;;;;;27.04;32.62;99299.94;104790;1257;71567;-63
2023/04/19 10:46:35;;;;;;;13.40;2.20;;;;;;;27.03;32.40;99297.35;104650;1257;59755;-63
2023/04/19 10:49:04;;;;;;;9.10;2.50;;;;;;;26.97;32.49;99308.24;104642;1253;59714;-63
2023/04/19 10:51:43;;;;;;;13.70;3.00;;;;;;;26.86;32.04;99307.38;104746;1258;72179;-64
2023/04/19 10:54:38;;;;;;;;;;;;;;;26.84;32.22;99306.75;104366;1253;69567;-64
2023/04/19 10:57:09;;;;;;;6.10;2.40;;;;;;;26.92;32.27;99309.60;104596;1267;72863;-65
2023/04/19 10:59:39;;;;;;;14.00;3.10;;;;;;;26.81;32.63;99313.21;104602;1258;60120;-64
2023/04/19 11:02:23;;;;;;;17.10;2.30;;;;;;;26.80;32.76;99310.33;104320;1263;60384;-66
2023/04/19 11:04:52;;;;;;;10.80;2.00;;;;;;;26.85;32.56;99313.63;104627;1266;72374;-62
2023/04/19 11:07:21;;;;;;;12.50;2.40;;;;;;;26.85;32.25;99316.89;104454;1269;68677;-61
2023/04/19 11:09:50;;;;;;;21.10;3.10;;;;;;;26.83;32.43;99316.53;104300;1257;72823;-61
2023/04/19 11:12:19;;;;;;;12.30;2.60;;;;;;;26.80;32.36;99319.30;104514;1254;60470;-63
2023/04/19 11:14:51;;;;;;;14.10;2.60;;;;;;;26.80;32.27;99320.30;104389;1258;59676;-64
2023/04/19 11:17:26;;;;;;;13.80;2.90;;;;;;;26.86;32.20;99319.29;104534;1259;72112;-63
2023/04/19 11:19:55;;;;;;;12.80;2.10;;;;;;;26.88;32.09;99327.33;104697;1253;69715;-63
2023/04/19 11:22:31;;;;;;;15.10;2.50;;;;;;;26.89;32.08;99327.02;104300;1257;74323;-62
2023/04/19 11:25:12;;;;;;;15.80;2.80;;;;;;;26.90;32.33;99327.79;104601;1257;60423;-62
2023/04/19 11:27:46;;;;;;;15.40;2.50;;;;;;;26.81;32.31;99332.22;104684;1256;60343;-60
2023/04/19 11:30:20;;;;;;;11.90;2.10;;;;;;;26.72;32.46;99331.55;104691;1257;73072;-61
2023/04/19 11:32:53;;;;;;;11.60;2.70;;;;;;;26.61;32.35;99339.46;104486;1259;68756;-64
2023/04/19 11:35:23;;;;;;;16.80;3.40;;;;;;;26.60;32.68;99342.79;104528;1257;72808;-62
2023/04/19 11:37:52;;;;;;;12.00;2.30;;;;;;;26.54;32.68;99341.27;104592;1257;59779;-63
2023/04/19 11:40:21;;;;;;;16.80;2.00;;;;;;;26.51;32.77;99344.45;104544;1257;59938;-63
2023/04/19 11:43:00;;;;;;;13.80;2.20;;;;;;;26.52;32.43;99344.89;104544;1256;73288;-63
2023/04/19 11:45:33;;;;;;;11.80;2.20;;;;;;;26.54;32.37;99340.73;104396;1258;69493;-63